Bathurst, Australia
Current Conditions -  °F | °C
As of 8:00 PM on Monday 22 Dec 2014 (Local Time) from YMDG Reporting Station
Clear Clear  
Wind Chill: 73°   Ceiling: Unl
Heat Index: 73°   Visibility: NA
Dew Point: 61°   Wind: 8mph
Humidity: 65%   Direction: 160°SSE
Pressure: 29.97"   Gusts: NA
Location:  33.42°S, 149.57°E
Report Text: YMDG 220900Z AUTO 16007KT //// // NCD 23/16 Q1015
Loading
Personal Weather Stations






























Interactive Weather Map New forecast layout! Learn more

10-Day Weather Forecast

Advertisements
Track Severe Weather on mobile